createdAt,value
2023-08-29T00:02:15.016Z,4.37
2023-08-29T00:04:42.834Z,4.73
2023-08-29T00:07:10.648Z,6.50
2023-08-29T00:09:39.858Z,5.33
2023-08-29T00:12:08.232Z,6.70
2023-08-29T00:14:36.276Z,4.63
2023-08-29T00:17:05.319Z,6.10
2023-08-29T00:19:33.173Z,6.30
2023-08-29T00:22:01.135Z,4.13
2023-08-29T00:24:30.284Z,4.00
2023-08-29T00:26:59.511Z,4.93
2023-08-29T00:29:28.406Z,4.87
2023-08-29T00:31:56.277Z,4.80
2023-08-29T00:34:24.174Z,5.07
2023-08-29T00:36:53.160Z,4.90
2023-08-29T00:39:21.066Z,3.23
2023-08-29T00:41:50.474Z,5.20
2023-08-29T00:44:20.090Z,4.10
2023-08-29T00:46:48.206Z,4.30
2023-08-29T00:49:18.477Z,6.17
2023-08-29T00:51:46.351Z,4.07
2023-08-29T00:54:16.687Z,3.33
2023-08-29T00:56:45.596Z,3.70
2023-08-29T00:59:13.707Z,3.03
2023-08-29T01:01:43.022Z,4.37
2023-08-29T01:04:11.152Z,3.33
2023-08-29T01:06:39.519Z,3.67
2023-08-29T01:09:08.527Z,4.63
2023-08-29T01:11:42.428Z,4.37
2023-08-29T01:14:15.935Z,3.20
2023-08-29T01:16:49.354Z,4.83
2023-08-29T01:19:17.798Z,3.83
2023-08-29T01:21:49.861Z,2.97
2023-08-29T01:24:22.979Z,3.37
2023-08-29T01:26:52.736Z,3.33
2023-08-29T01:29:21.615Z,3.87
2023-08-29T01:31:49.882Z,3.70
2023-08-29T01:34:18.304Z,2.73
2023-08-29T01:36:46.121Z,5.13
2023-08-29T01:39:13.997Z,4.80
2023-08-29T01:41:41.922Z,3.27
2023-08-29T01:44:11.349Z,2.83
2023-08-29T01:46:39.205Z,3.23
2023-08-29T01:49:07.397Z,3.30
2023-08-29T01:51:35.352Z,3.10
2023-08-29T01:54:03.258Z,3.33
2023-08-29T01:56:31.582Z,3.33
2023-08-29T01:59:00.139Z,3.33
2023-08-29T02:01:30.924Z,2.50
2023-08-29T02:03:58.812Z,4.23
2023-08-29T02:06:26.737Z,3.40
2023-08-29T02:08:55.535Z,3.83
2023-08-29T02:11:23.451Z,2.87
2023-08-29T02:13:51.345Z,3.37
2023-08-29T02:16:19.178Z,3.40
2023-08-29T02:18:48.533Z,2.63
2023-08-29T02:21:16.337Z,3.33
2023-08-29T02:23:44.190Z,5.43
2023-08-29T02:26:12.003Z,3.40
2023-08-29T02:28:40.745Z,2.87
2023-08-29T02:31:10.297Z,4.03
2023-08-29T02:33:39.812Z,3.17
2023-08-29T02:36:09.535Z,3.80
2023-08-29T02:38:37.474Z,3.83
2023-08-29T02:41:05.344Z,2.57
2023-08-29T02:43:33.220Z,4.03
2023-08-29T02:46:01.204Z,2.77
2023-08-29T02:48:29.489Z,2.50
2023-08-29T02:50:57.378Z,4.77
2023-08-29T02:53:26.593Z,2.77
2023-08-29T02:55:55.040Z,3.13
2023-08-29T02:58:22.882Z,3.33
2023-08-29T03:00:57.207Z,2.77
2023-08-29T03:03:25.393Z,2.90
2023-08-29T03:05:56.762Z,3.97
2023-08-29T03:08:26.176Z,2.40
2023-08-29T03:10:54.884Z,2.70
2023-08-29T03:13:22.859Z,3.80
2023-08-29T03:15:50.977Z,3.23
2023-08-29T03:18:18.880Z,3.27
2023-08-29T03:20:47.012Z,3.00
2023-08-29T03:23:15.297Z,2.60
2023-08-29T03:25:44.547Z,2.70
2023-08-29T03:28:12.370Z,2.37
2023-08-29T03:30:40.231Z,2.60
2023-08-29T03:33:08.158Z,2.50
2023-08-29T03:35:36.112Z,3.97
2023-08-29T03:38:04.218Z,3.03
2023-08-29T03:40:32.715Z,2.87
2023-08-29T03:43:01.975Z,2.20
2023-08-29T03:45:29.815Z,2.40
2023-08-29T03:47:57.702Z,3.80
2023-08-29T03:50:26.340Z,2.60
2023-08-29T03:52:54.208Z,2.40
2023-08-29T03:55:23.399Z,2.97
2023-08-29T03:57:51.231Z,3.83
2023-08-29T04:00:20.700Z,2.70
2023-08-29T04:02:48.779Z,3.07
2023-08-29T04:05:18.674Z,2.97
2023-08-29T04:07:46.816Z,2.30
2023-08-29T04:10:15.079Z,3.70
2023-08-29T04:12:43.030Z,2.73
2023-08-29T04:15:13.682Z,3.77
2023-08-29T04:17:42.976Z,2.37
2023-08-29T04:20:13.822Z,3.87
2023-08-29T04:22:41.866Z,2.73
2023-08-29T04:25:10.282Z,2.67
2023-08-29T04:27:38.916Z,3.00
2023-08-29T04:30:07.950Z,3.20
2023-08-29T04:32:38.321Z,3.20
2023-08-29T04:35:09.406Z,4.43
2023-08-29T04:37:37.710Z,3.93
2023-08-29T04:40:07.635Z,3.27
2023-08-29T04:42:35.631Z,2.73
2023-08-29T04:45:05.364Z,3.83
2023-08-29T04:47:33.357Z,3.20
2023-08-29T04:50:01.707Z,2.40
2023-08-29T04:52:31.214Z,4.20
2023-08-29T04:54:59.214Z,3.43
2023-08-29T04:57:27.494Z,2.23
2023-08-29T04:59:55.397Z,2.47
2023-08-29T05:02:23.925Z,2.27
2023-08-29T05:04:53.689Z,4.03
2023-08-29T05:07:23.043Z,2.40
2023-08-29T05:09:52.340Z,2.27
2023-08-29T05:12:20.244Z,2.80
2023-08-29T05:14:48.113Z,2.73
2023-08-29T05:17:16.041Z,2.37
2023-08-29T05:19:44.602Z,2.17
2023-08-29T05:22:12.553Z,2.07
2023-08-29T05:24:40.409Z,3.33
2023-08-29T05:27:09.935Z,2.77
2023-08-29T05:29:37.814Z,2.63
2023-08-29T05:32:06.300Z,2.27
2023-08-29T05:34:34.134Z,3.03
2023-08-29T05:37:04.276Z,2.57
2023-08-29T05:39:32.425Z,3.10
2023-08-29T05:42:00.554Z,2.50
2023-08-29T05:44:29.772Z,3.43
2023-08-29T05:46:57.591Z,3.40
2023-08-29T05:49:25.535Z,2.40
2023-08-29T05:51:53.426Z,2.33
2023-08-29T05:54:21.933Z,3.07
2023-08-29T05:56:49.816Z,3.50
2023-08-29T05:59:17.999Z,3.53
2023-08-29T06:01:48.565Z,2.30
2023-08-29T06:04:16.526Z,3.00
2023-08-29T06:06:44.859Z,2.93
2023-08-29T06:09:12.681Z,2.33
2023-08-29T06:11:40.862Z,2.97
2023-08-29T06:14:08.797Z,2.90
2023-08-29T06:16:36.725Z,4.67
2023-08-29T06:19:06.028Z,3.27
2023-08-29T06:21:33.985Z,3.57
2023-08-29T06:24:01.945Z,5.57
2023-08-29T06:26:29.890Z,3.43
2023-08-29T06:28:57.780Z,2.87
2023-08-29T06:31:25.709Z,3.70
2023-08-29T06:33:53.543Z,3.27
2023-08-29T06:36:22.851Z,4.23
2023-08-29T06:38:50.728Z,2.17
2023-08-29T06:41:18.601Z,2.93
2023-08-29T06:43:47.850Z,2.67
2023-08-29T06:46:15.985Z,2.17
2023-08-29T06:48:43.969Z,2.70
2023-08-29T06:51:12.168Z,2.50
2023-08-29T06:53:41.365Z,2.00
2023-08-29T06:56:09.186Z,2.13
2023-08-29T06:58:38.028Z,2.30
2023-08-29T07:01:05.977Z,2.60
2023-08-29T07:03:34.024Z,3.27
2023-08-29T07:06:02.017Z,2.63
2023-08-29T07:08:29.918Z,2.57
2023-08-29T07:10:59.155Z,2.80
2023-08-29T07:13:27.010Z,2.00
2023-08-29T07:15:54.890Z,2.80
2023-08-29T07:18:22.756Z,2.87
2023-08-29T07:20:51.167Z,3.63
2023-08-29T07:23:19.243Z,2.07
2023-08-29T07:25:47.719Z,2.40
2023-08-29T07:28:16.955Z,2.30
2023-08-29T07:30:46.868Z,2.30
2023-08-29T07:33:15.063Z,2.30
2023-08-29T07:35:44.181Z,3.53
2023-08-29T07:38:12.148Z,4.23
2023-08-29T07:40:40.214Z,30.50
2023-08-29T07:43:09.692Z,19.17
2023-08-29T07:45:38.876Z,13.33
2023-08-29T07:48:07.622Z,8.40
2023-08-29T07:50:35.957Z,5.97
2023-08-29T07:53:03.934Z,4.50
2023-08-29T07:55:32.742Z,3.83
2023-08-29T07:58:01.220Z,3.10
2023-08-29T08:00:29.437Z,3.70
2023-08-29T08:02:58.787Z,3.40
2023-08-29T08:05:26.877Z,3.27
2023-08-29T08:07:54.858Z,2.87
2023-08-29T08:10:22.800Z,2.30
2023-08-29T08:12:50.760Z,4.47
2023-08-29T08:15:18.736Z,3.67
2023-08-29T08:17:47.885Z,3.77
2023-08-29T08:20:18.124Z,4.10
2023-08-29T08:22:46.037Z,4.43
2023-08-29T08:25:13.889Z,5.73
2023-08-29T08:27:42.485Z,5.37
2023-08-29T08:30:11.044Z,4.07
2023-08-29T08:32:39.271Z,4.27
2023-08-29T08:35:08.425Z,6.40
2023-08-29T08:37:42.980Z,5.43
2023-08-29T08:40:13.879Z,5.57
2023-08-29T08:42:41.879Z,6.30
2023-08-29T08:45:10.441Z,5.70
2023-08-29T08:47:38.807Z,5.23
2023-08-29T08:50:09.506Z,5.33
2023-08-29T08:52:38.068Z,5.37
2023-08-29T08:55:07.631Z,7.67
2023-08-29T08:57:36.883Z,6.53
2023-08-29T09:00:06.870Z,5.07
2023-08-29T09:02:36.041Z,4.23
2023-08-29T09:05:04.444Z,3.90
2023-08-29T09:07:32.450Z,5.07
2023-08-29T09:10:11.552Z,4.07
2023-08-29T09:12:48.963Z,4.03
2023-08-29T09:15:18.020Z,4.20
2023-08-29T09:17:47.585Z,4.53
2023-08-29T09:20:15.809Z,5.23
2023-08-29T09:22:44.021Z,4.17
2023-08-29T09:25:12.604Z,2.80
2023-08-29T09:27:41.768Z,4.07
2023-08-29T09:30:12.898Z,2.87
2023-08-29T09:32:43.560Z,3.00
2023-08-29T09:35:14.134Z,2.20
2023-08-29T09:37:43.438Z,1.90
2023-08-29T09:40:27.031Z,2.77
2023-08-29T09:43:02.054Z,2.27
2023-08-29T09:45:33.072Z,2.30
2023-08-29T09:48:03.613Z,2.90
2023-08-29T09:50:32.598Z,6.03
2023-08-29T09:53:01.822Z,4.57
2023-08-29T09:55:33.890Z,2.87
2023-08-29T09:58:04.051Z,2.83
2023-08-29T10:00:33.750Z,3.40
2023-08-29T10:03:03.165Z,2.10
2023-08-29T10:05:34.840Z,2.80
2023-08-29T10:08:07.937Z,1.80
2023-08-29T10:10:36.400Z,1.70
2023-08-29T10:13:06.585Z,2.50
2023-08-29T10:15:38.797Z,1.90
2023-08-29T10:18:08.168Z,1.50
2023-08-29T10:20:37.582Z,1.90
2023-08-29T10:23:08.213Z,1.83
2023-08-29T10:25:37.748Z,1.67
2023-08-29T10:28:07.190Z,2.50
2023-08-29T10:30:36.841Z,2.20
2023-08-29T10:33:05.353Z,2.20
2023-08-29T10:35:34.342Z,1.60
2023-08-29T10:38:03.119Z,1.70
2023-08-29T10:40:36.441Z,2.43
2023-08-29T10:43:05.070Z,1.87
2023-08-29T10:45:48.913Z,3.10
2023-08-29T10:48:18.973Z,1.70
2023-08-29T10:50:48.418Z,1.97
2023-08-29T10:53:20.712Z,2.70
2023-08-29T10:56:04.949Z,3.67
2023-08-29T10:58:36.869Z,1.93
2023-08-29T11:01:06.355Z,1.93
2023-08-29T11:03:47.980Z,2.50
2023-08-29T11:06:18.041Z,1.97
2023-08-29T11:08:45.919Z,2.77
2023-08-29T11:11:21.947Z,1.97
2023-08-29T11:14:00.876Z,2.47
2023-08-29T11:16:31.814Z,1.90
2023-08-29T11:19:12.545Z,2.47
2023-08-29T11:21:40.948Z,1.90
2023-08-29T11:24:16.494Z,3.83
2023-08-29T11:26:46.812Z,1.67
2023-08-29T11:29:14.726Z,2.53
2023-08-29T11:31:45.029Z,4.00
2023-08-29T11:34:16.857Z,1.97
2023-08-29T11:36:46.561Z,2.50
2023-08-29T11:39:14.596Z,2.57
2023-08-29T11:41:53.873Z,2.73
2023-08-29T11:45:40.814Z,3.20
2023-08-29T11:47:24.990Z,2.93
2023-08-29T11:49:53.838Z,2.53
2023-08-29T11:52:22.063Z,4.13
2023-08-29T11:54:51.935Z,2.30
2023-08-29T11:57:20.243Z,2.07
2023-08-29T11:59:48.942Z,2.83
2023-08-29T12:02:19.792Z,1.90
2023-08-29T12:04:50.610Z,1.80
2023-08-29T12:07:19.599Z,1.53
2023-08-29T12:09:48.535Z,1.30
2023-08-29T12:12:35.652Z,1.50
2023-08-29T12:15:06.920Z,1.77
2023-08-29T12:17:40.103Z,1.67
2023-08-29T12:20:29.125Z,2.17
2023-08-29T12:22:57.557Z,1.67
2023-08-29T12:25:25.647Z,1.97
2023-08-29T12:32:03.578Z,1.83
2023-08-29T12:34:31.464Z,2.10
2023-08-29T12:36:59.285Z,2.00
2023-08-29T12:39:27.256Z,1.80
2023-08-29T12:41:55.113Z,2.57
2023-08-29T12:44:23.307Z,1.83
2023-08-29T12:46:51.234Z,1.60
2023-08-29T12:49:20.449Z,2.83
2023-08-29T12:51:48.277Z,3.03
2023-08-29T12:54:16.091Z,2.00
2023-08-29T12:56:45.112Z,1.30
2023-08-29T12:59:12.949Z,1.90
2023-08-29T13:01:40.984Z,2.77
2023-08-29T13:04:08.887Z,2.83
2023-08-29T13:06:38.087Z,2.10
2023-08-29T13:09:06.293Z,1.60
2023-08-29T13:11:34.198Z,1.40
2023-08-29T13:14:02.085Z,1.43
2023-08-29T13:16:33.696Z,1.63
2023-08-29T13:19:01.681Z,2.50
2023-08-29T13:21:29.719Z,1.57
2023-08-29T13:23:58.998Z,1.67
2023-08-29T13:26:26.925Z,1.87
2023-08-29T13:28:55.010Z,1.70
2023-08-29T13:31:24.653Z,1.63
2023-08-29T13:33:54.430Z,1.73
2023-08-29T13:36:22.311Z,1.47
2023-08-29T13:38:50.836Z,1.60
2023-08-29T13:41:20.298Z,1.57
2023-08-29T13:43:48.184Z,2.20
2023-08-29T13:46:16.354Z,2.40
2023-08-29T13:48:44.242Z,2.33
2023-08-29T13:51:12.502Z,1.60
2023-08-29T13:53:40.337Z,1.97
2023-08-29T13:56:08.192Z,2.50
2023-08-29T13:58:37.419Z,3.10
2023-08-29T14:01:05.321Z,4.20
2023-08-29T14:03:38.916Z,2.10
2023-08-29T14:06:07.355Z,1.77
2023-08-29T14:08:35.261Z,1.90
2023-08-29T14:11:07.360Z,1.63
2023-08-29T14:13:37.755Z,1.73
2023-08-29T14:16:06.145Z,1.57
2023-08-29T14:18:35.042Z,2.37
2023-08-29T14:21:03.099Z,1.93
2023-08-29T14:23:31.007Z,2.27
2023-08-29T14:25:59.027Z,2.77
2023-08-29T14:28:28.266Z,1.80
2023-08-29T14:30:57.565Z,2.10
2023-08-29T14:33:25.614Z,1.40
2023-08-29T14:35:56.542Z,1.77
2023-08-29T14:38:24.417Z,1.10
2023-08-29T14:40:52.275Z,1.47
2023-08-29T14:43:20.153Z,2.07
2023-08-29T14:45:48.085Z,2.97
2023-08-29T14:48:17.354Z,2.70
2023-08-29T14:50:46.497Z,3.20
2023-08-29T14:53:14.417Z,1.93
2023-08-29T14:55:42.299Z,2.17
2023-08-29T14:58:10.387Z,2.70
2023-08-29T15:00:42.220Z,1.97
2023-08-29T15:03:10.654Z,4.73
2023-08-29T15:05:40.046Z,1.80
2023-08-29T15:08:08.890Z,2.70
2023-08-29T15:10:37.713Z,1.70
2023-08-29T15:13:06.292Z,1.57
2023-08-29T15:15:34.251Z,2.43
2023-08-29T15:18:02.192Z,2.10
2023-08-29T15:20:32.139Z,3.30
2023-08-29T15:23:01.408Z,2.43
2023-08-29T15:25:29.322Z,2.27
2023-08-29T15:27:57.240Z,2.27
2023-08-29T15:30:25.096Z,1.77
2023-08-29T15:32:52.955Z,15.90
2023-08-29T15:35:20.974Z,8.67
2023-08-29T15:37:48.827Z,6.07
2023-08-29T15:40:18.237Z,4.67
2023-08-29T15:42:46.233Z,2.93
2023-08-29T15:45:14.148Z,4.27
2023-08-29T15:47:43.296Z,3.20
2023-08-29T15:50:12.294Z,3.20
2023-08-29T15:52:40.227Z,2.67
2023-08-29T15:55:08.878Z,2.63
2023-08-29T15:57:38.145Z,3.63
2023-08-29T16:00:13.670Z,2.50
2023-08-29T16:02:41.921Z,4.63
2023-08-29T16:05:10.304Z,2.50
2023-08-29T16:07:38.165Z,3.17
2023-08-29T16:10:07.089Z,3.50
2023-08-29T16:12:34.968Z,3.27
2023-08-29T16:15:04.439Z,3.93
2023-08-29T16:17:34.297Z,3.23
2023-08-29T16:20:03.313Z,4.60
2023-08-29T16:22:31.135Z,4.20
2023-08-29T16:24:59.078Z,3.17
2023-08-29T16:27:26.929Z,2.37
2023-08-29T16:29:55.784Z,4.30
2023-08-29T16:32:25.113Z,3.03
2023-08-29T16:34:54.322Z,2.63
2023-08-29T16:37:22.221Z,3.70
2023-08-29T16:39:50.065Z,3.60
2023-08-29T16:42:17.906Z,4.57
2023-08-29T16:44:45.720Z,2.77
2023-08-29T16:47:13.672Z,2.90
2023-08-29T16:49:42.936Z,3.00
2023-08-29T16:52:10.749Z,2.60
2023-08-29T16:54:38.608Z,2.53
2023-08-29T16:57:06.670Z,3.07
2023-08-29T16:59:54.329Z,3.00
2023-08-29T17:02:22.185Z,1.73
2023-08-29T17:04:51.461Z,2.47
2023-08-29T17:07:19.385Z,2.80
2023-08-29T17:09:47.577Z,2.03
2023-08-29T17:12:18.825Z,2.43
2023-08-29T17:14:46.837Z,2.37
2023-08-29T17:17:14.892Z,1.90
2023-08-29T17:19:43.450Z,1.73
2023-08-29T17:22:12.677Z,2.37
2023-08-29T17:24:40.876Z,4.20
2023-08-29T17:27:09.302Z,3.00
2023-08-29T17:29:37.248Z,2.23
2023-08-29T17:32:05.753Z,2.30
2023-08-29T17:34:33.632Z,4.30
2023-08-29T17:37:01.518Z,3.63
2023-08-29T17:39:31.009Z,2.03
2023-08-29T17:41:58.896Z,3.30
2023-08-29T17:44:26.930Z,4.33
2023-08-29T17:46:54.837Z,2.07
2023-08-29T17:49:23.064Z,2.90
2023-08-29T17:51:50.909Z,1.93
2023-08-29T17:54:18.844Z,1.80
2023-08-29T17:56:49.403Z,3.47
2023-08-29T17:59:17.421Z,3.57
2023-08-29T18:01:45.592Z,2.80
2023-08-29T18:04:13.496Z,1.17
2023-08-29T18:06:41.389Z,1.03
2023-08-29T18:09:09.513Z,1.20
2023-08-29T18:11:37.400Z,2.00
2023-08-29T18:14:06.811Z,2.80
2023-08-29T18:16:34.678Z,1.27
2023-08-29T18:19:03.274Z,1.87
2023-08-29T18:21:32.465Z,1.47
2023-08-29T18:24:00.374Z,1.53
2023-08-29T18:26:29.636Z,1.13
2023-08-29T18:28:57.494Z,0.93
2023-08-29T18:31:26.804Z,0.77
2023-08-29T18:33:56.708Z,0.73
2023-08-29T18:36:24.748Z,0.63
2023-08-29T18:38:53.182Z,1.47
2023-08-29T18:41:21.054Z,1.10
2023-08-29T18:43:49.812Z,1.27
2023-08-29T18:46:18.472Z,1.47
2023-08-29T18:48:47.852Z,1.70
2023-08-29T18:51:15.849Z,2.53
2023-08-29T18:53:43.665Z,1.90
2023-08-29T18:56:15.887Z,2.07
2023-08-29T18:58:43.731Z,2.97
2023-08-29T19:01:11.679Z,1.40
2023-08-29T19:03:40.450Z,1.43
2023-08-29T19:06:20.958Z,1.87
2023-08-29T19:08:53.962Z,2.27
2023-08-29T19:11:23.410Z,2.40
2023-08-29T19:13:53.361Z,3.17
2023-08-29T19:16:21.231Z,1.90
2023-08-29T19:18:49.057Z,2.07
2023-08-29T19:21:18.302Z,2.80
2023-08-29T19:23:46.367Z,2.57
2023-08-29T19:26:14.840Z,1.97
2023-08-29T19:28:42.710Z,2.23
2023-08-29T19:31:10.551Z,3.60
2023-08-29T19:33:38.551Z,2.20
2023-08-29T19:36:13.534Z,2.23
2023-08-29T19:38:44.929Z,2.63
2023-08-29T19:41:15.196Z,1.50
2023-08-29T19:43:43.039Z,1.80
2023-08-29T19:46:15.655Z,1.67
2023-08-29T19:48:46.564Z,2.77
2023-08-29T19:51:14.453Z,2.63
2023-08-29T19:53:51.938Z,2.90
2023-08-29T19:56:19.789Z,2.77
2023-08-29T19:58:51.383Z,1.67
2023-08-29T20:01:19.592Z,1.70
2023-08-29T20:03:47.534Z,2.00
2023-08-29T20:06:23.991Z,3.13
2023-08-29T20:08:53.247Z,2.23
2023-08-29T20:11:23.122Z,3.13
2023-08-29T20:13:50.985Z,2.20
2023-08-29T20:16:27.915Z,2.00
2023-08-29T20:18:59.416Z,1.40
2023-08-29T20:21:27.237Z,1.43
2023-08-29T20:24:02.495Z,1.50
2023-08-29T20:26:32.094Z,1.07
2023-08-29T20:29:01.513Z,1.27
2023-08-29T20:31:30.335Z,1.00
2023-08-29T20:33:58.178Z,0.87
2023-08-29T20:36:26.055Z,1.67
2023-08-29T20:38:53.985Z,1.40
2023-08-29T20:41:24.779Z,1.20
2023-08-29T20:43:55.538Z,1.57
2023-08-29T20:46:26.942Z,1.40
2023-08-29T20:48:54.936Z,1.23
2023-08-29T20:51:25.312Z,2.00
2023-08-29T20:53:53.222Z,0.80
2023-08-29T20:56:22.053Z,1.93
2023-08-29T20:58:51.314Z,2.03
2023-08-29T21:01:19.156Z,1.90
2023-08-29T21:03:47.232Z,2.10
2023-08-29T21:06:15.191Z,1.47
2023-08-29T21:08:43.173Z,1.40
2023-08-29T21:11:12.449Z,1.37
2023-08-29T21:13:40.309Z,1.40
2023-08-29T21:16:10.240Z,1.17
2023-08-29T21:18:38.080Z,1.77
2023-08-29T21:21:05.969Z,2.00
2023-08-29T21:23:34.809Z,1.43
2023-08-29T21:26:02.731Z,1.97
2023-08-29T21:28:31.516Z,1.10
2023-08-29T21:31:00.093Z,1.40
2023-08-29T21:33:29.342Z,2.00
2023-08-29T21:35:57.233Z,2.73
2023-08-29T21:38:25.062Z,1.57
2023-08-29T21:40:53.117Z,2.03
2023-08-29T21:43:24.851Z,1.67
2023-08-29T21:45:54.477Z,1.93
2023-08-29T21:48:24.367Z,1.63
2023-08-29T21:50:55.074Z,1.73
2023-08-29T21:53:23.242Z,1.50
2023-08-29T21:55:52.582Z,1.93
2023-08-29T21:58:21.084Z,1.67
2023-08-29T22:00:49.832Z,1.90
2023-08-29T22:03:17.860Z,1.80
2023-08-29T22:05:45.876Z,2.27
2023-08-29T22:08:15.146Z,2.57
2023-08-29T22:10:43.269Z,2.07
2023-08-29T22:13:11.223Z,2.17
2023-08-29T22:15:39.370Z,2.50
2023-08-29T22:18:08.094Z,1.63
2023-08-29T22:20:36.358Z,2.87
2023-08-29T22:23:04.551Z,1.70
2023-08-29T22:25:33.928Z,2.23
2023-08-29T22:28:01.819Z,2.03
2023-08-29T22:30:29.683Z,1.60
2023-08-29T22:32:57.619Z,1.70
2023-08-29T22:35:25.526Z,1.77
2023-08-29T22:37:53.649Z,2.00
2023-08-29T22:40:21.808Z,2.03
2023-08-29T22:42:51.004Z,1.67
2023-08-29T22:45:19.011Z,1.77
2023-08-29T22:47:46.860Z,1.80
2023-08-29T22:50:14.729Z,1.90
2023-08-29T22:52:43.156Z,2.03
2023-08-29T22:55:11.908Z,2.13
2023-08-29T22:57:39.722Z,2.50
2023-08-29T23:00:13.853Z,1.40
2023-08-29T23:02:41.831Z,1.97
2023-08-29T23:05:10.767Z,2.00
2023-08-29T23:07:38.672Z,2.20
2023-08-29T23:10:07.365Z,1.73
2023-08-29T23:12:35.339Z,2.40
2023-08-29T23:15:03.493Z,2.03
2023-08-29T23:17:32.820Z,2.00
2023-08-29T23:20:00.784Z,2.47
2023-08-29T23:22:28.894Z,1.97
2023-08-29T23:24:56.747Z,2.83
2023-08-29T23:27:24.673Z,2.67
2023-08-29T23:29:52.696Z,2.37
2023-08-29T23:32:20.570Z,4.03
2023-08-29T23:34:50.223Z,2.10
2023-08-29T23:37:18.027Z,2.60
2023-08-29T23:39:45.877Z,3.57
2023-08-29T23:42:13.733Z,2.80
2023-08-29T23:44:41.569Z,2.87
2023-08-29T23:47:09.503Z,2.90
2023-08-29T23:49:37.359Z,2.83
2023-08-29T23:52:06.933Z,4.00
2023-08-29T23:54:34.774Z,3.03
2023-08-29T23:57:02.622Z,2.50
2023-08-29T23:59:30.470Z,3.03
